aviador You're here:

PASK Decoded Metar

SELAWIK in AK, USA
Report Time2018-05-25 19:56:00
UTC Time2018-05-25 20:37:16
Flight Rules ifr IFR
Wind240° at 10 kt
W.Decomp.*RWY 22: 10.0 kt HW 0.7 kt RCW
RWY 27: 6.9 kt HW 7.2 kt LCW
W.Rank240° ranks 8
Current wind is above 240° avg. (7.0)
Visibility9999 m
Phenomena:N/A
Clouds:Overcast 006 Hf
Expected CloudBase > 1,200 ft AGL from Temp-Dew spread
Ceiling600 ft
Temp02°C (ISA -13)
Dew Point-1°C (81% RH)
AAT-3.7°C
QNH1008 hPa
Density Alt-1,299 ft
Elevation26 ft
Report Wrong Elevation
Raw Report
PASK 251956Z AUTO 24010KT 10SM OVC006 02/M01 A2978 RMK AO2 SLP082
T00171006 FZRANO $=

Extra information for PASK:More info

Metar Taf Metar & Taf Last 4 Metars F.Rules Stats Wind Profile Meteogram Temp Stats Airport Information Weather charts Add Link Nearby VenuesMetar ALERT Operation Metar Decoded Social comments

AIRNAV info for PASK